sensor_id;sensor_type;location;lat;lon;timestamp;P1;durP1;ratioP1;P2;durP2;ratioP2
71343;SDS011;59146;43.850;25.948;2023-04-22T00:00:00;20.23;;;9.15;;
71343;SDS011;59146;43.850;25.948;2023-04-22T00:02:25;25.58;;;8.88;;
71343;SDS011;59146;43.850;25.948;2023-04-22T00:04:51;18.55;;;8.98;;
71343;SDS011;59146;43.850;25.948;2023-04-22T00:07:16;24.13;;;9.55;;
71343;SDS011;59146;43.850;25.948;2023-04-22T00:09:42;19.10;;;9.02;;
71343;SDS011;59146;43.850;25.948;2023-04-22T00:12:08;18.67;;;8.73;;
71343;SDS011;59146;43.850;25.948;2023-04-22T00:14:35;17.13;;;9.05;;
71343;SDS011;59146;43.850;25.948;2023-04-22T00:17:01;18.13;;;8.63;;
71343;SDS011;59146;43.850;25.948;2023-04-22T00:19:26;16.70;;;8.88;;
71343;SDS011;59146;43.850;25.948;2023-04-22T00:21:53;22.48;;;8.27;;
71343;SDS011;59146;43.850;25.948;2023-04-22T00:24:18;18.17;;;8.07;;
71343;SDS011;59146;43.850;25.948;2023-04-22T00:26:43;30.13;;;9.25;;
71343;SDS011;59146;43.850;25.948;2023-04-22T00:29:09;19.73;;;8.70;;
71343;SDS011;59146;43.850;25.948;2023-04-22T00:31:34;17.05;;;9.05;;
71343;SDS011;59146;43.850;25.948;2023-04-22T00:34:00;18.15;;;9.13;;
71343;SDS011;59146;43.850;25.948;2023-04-22T00:36:25;23.13;;;8.88;;
71343;SDS011;59146;43.850;25.948;2023-04-22T00:38:52;12.07;;;8.23;;
71343;SDS011;59146;43.850;25.948;2023-04-22T00:41:17;24.63;;;8.27;;
71343;SDS011;59146;43.850;25.948;2023-04-22T00:43:44;17.35;;;8.43;;
71343;SDS011;59146;43.850;25.948;2023-04-22T00:46:10;23.73;;;9.90;;
71343;SDS011;59146;43.850;25.948;2023-04-22T00:48:38;17.38;;;9.48;;
71343;SDS011;59146;43.850;25.948;2023-04-22T00:51:04;18.10;;;8.80;;
71343;SDS011;59146;43.850;25.948;2023-04-22T00:53:29;24.85;;;9.50;;
71343;SDS011;59146;43.850;25.948;2023-04-22T00:55:55;16.58;;;9.00;;
71343;SDS011;59146;43.850;25.948;2023-04-22T00:58:21;25.60;;;9.55;;
71343;SDS011;59146;43.850;25.948;2023-04-22T01:00:49;21.35;;;9.85;;
71343;SDS011;59146;43.850;25.948;2023-04-22T01:03:15;28.35;;;9.77;;
71343;SDS011;59146;43.850;25.948;2023-04-22T01:05:41;17.83;;;8.70;;
71343;SDS011;59146;43.850;25.948;2023-04-22T01:08:07;23.33;;;9.70;;
71343;SDS011;59146;43.850;25.948;2023-04-22T01:10:33;18.35;;;9.40;;
71343;SDS011;59146;43.850;25.948;2023-04-22T01:12:59;28.00;;;9.45;;
71343;SDS011;59146;43.850;25.948;2023-04-22T01:15:24;23.70;;;9.88;;
71343;SDS011;59146;43.850;25.948;2023-04-22T01:17:52;22.23;;;10.52;;
71343;SDS011;59146;43.850;25.948;2023-04-22T01:20:18;27.67;;;10.30;;
71343;SDS011;59146;43.850;25.948;2023-04-22T01:22:45;20.35;;;9.45;;
71343;SDS011;59146;43.850;25.948;2023-04-22T01:25:14;20.20;;;10.38;;
71343;SDS011;59146;43.850;25.948;2023-04-22T01:27:40;22.33;;;9.45;;
71343;SDS011;59146;43.850;25.948;2023-04-22T01:30:06;15.40;;;9.55;;
71343;SDS011;59146;43.850;25.948;2023-04-22T01:32:32;30.08;;;11.10;;
71343;SDS011;59146;43.850;25.948;2023-04-22T01:34:58;25.02;;;9.68;;
71343;SDS011;59146;43.850;25.948;2023-04-22T01:37:23;27.58;;;10.45;;
71343;SDS011;59146;43.850;25.948;2023-04-22T01:39:49;21.10;;;10.65;;
71343;SDS011;59146;43.850;25.948;2023-04-22T01:42:15;18.45;;;10.13;;
71343;SDS011;59146;43.850;25.948;2023-04-22T01:44:41;16.00;;;8.93;;
71343;SDS011;59146;43.850;25.948;2023-04-22T01:47:06;24.75;;;10.38;;
71343;SDS011;59146;43.850;25.948;2023-04-22T01:49:32;25.15;;;10.95;;
71343;SDS011;59146;43.850;25.948;2023-04-22T01:51:57;28.52;;;11.43;;
71343;SDS011;59146;43.850;25.948;2023-04-22T01:54:23;28.98;;;10.43;;
71343;SDS011;59146;43.850;25.948;2023-04-22T01:56:49;20.73;;;9.70;;
71343;SDS011;59146;43.850;25.948;2023-04-22T01:59:17;15.40;;;9.80;;
71343;SDS011;59146;43.850;25.948;2023-04-22T02:01:42;16.25;;;10.20;;
71343;SDS011;59146;43.850;25.948;2023-04-22T02:04:08;19.00;;;9.95;;
71343;SDS011;59146;43.850;25.948;2023-04-22T02:06:36;16.48;;;8.73;;
71343;SDS011;59146;43.850;25.948;2023-04-22T02:09:02;16.65;;;9.18;;
71343;SDS011;59146;43.850;25.948;2023-04-22T02:11:27;15.32;;;8.77;;
71343;SDS011;59146;43.850;25.948;2023-04-22T02:13:53;17.38;;;9.32;;
71343;SDS011;59146;43.850;25.948;2023-04-22T02:16:18;16.73;;;8.60;;
71343;SDS011;59146;43.850;25.948;2023-04-22T02:18:43;16.48;;;8.98;;
71343;SDS011;59146;43.850;25.948;2023-04-22T02:21:09;22.58;;;9.40;;
71343;SDS011;59146;43.850;25.948;2023-04-22T02:23:35;24.75;;;7.85;;
71343;SDS011;59146;43.850;25.948;2023-04-22T02:26:01;25.42;;;8.27;;
71343;SDS011;59146;43.850;25.948;2023-04-22T02:28:27;22.67;;;7.65;;
71343;SDS011;59146;43.850;25.948;2023-04-22T02:30:53;14.18;;;7.03;;
71343;SDS011;59146;43.850;25.948;2023-04-22T02:33:18;16.25;;;8.27;;
71343;SDS011;59146;43.850;25.948;2023-04-22T02:35:44;17.50;;;8.38;;
71343;SDS011;59146;43.850;25.948;2023-04-22T02:38:09;19.05;;;8.52;;
71343;SDS011;59146;43.850;25.948;2023-04-22T02:40:35;15.10;;;7.20;;
71343;SDS011;59146;43.850;25.948;2023-04-22T02:43:00;19.55;;;8.05;;
71343;SDS011;59146;43.850;25.948;2023-04-22T02:45:26;11.98;;;6.75;;
71343;SDS011;59146;43.850;25.948;2023-04-22T02:47:51;18.55;;;7.95;;
71343;SDS011;59146;43.850;25.948;2023-04-22T02:50:16;11.70;;;7.20;;
71343;SDS011;59146;43.850;25.948;2023-04-22T02:52:42;16.45;;;8.00;;
71343;SDS011;59146;43.850;25.948;2023-04-22T02:55:07;14.15;;;7.75;;
71343;SDS011;59146;43.850;25.948;2023-04-22T02:57:33;17.08;;;7.05;;
71343;SDS011;59146;43.850;25.948;2023-04-22T02:59:59;27.23;;;7.97;;
71343;SDS011;59146;43.850;25.948;2023-04-22T03:02:24;15.25;;;6.40;;
71343;SDS011;59146;43.850;25.948;2023-04-22T03:04:50;14.30;;;6.07;;
71343;SDS011;59146;43.850;25.948;2023-04-22T03:07:18;11.55;;;6.72;;
71343;SDS011;59146;43.850;25.948;2023-04-22T03:09:43;20.33;;;6.40;;
71343;SDS011;59146;43.850;25.948;2023-04-22T03:12:09;12.93;;;6.97;;
71343;SDS011;59146;43.850;25.948;2023-04-22T03:14:34;17.48;;;7.13;;
71343;SDS011;59146;43.850;25.948;2023-04-22T03:17:00;15.60;;;7.60;;
71343;SDS011;59146;43.850;25.948;2023-04-22T03:19:25;18.20;;;8.55;;
71343;SDS011;59146;43.850;25.948;2023-04-22T03:21:50;20.40;;;8.77;;
71343;SDS011;59146;43.850;25.948;2023-04-22T03:24:16;16.67;;;8.63;;
71343;SDS011;59146;43.850;25.948;2023-04-22T03:26:41;24.55;;;10.43;;
71343;SDS011;59146;43.850;25.948;2023-04-22T03:29:07;17.85;;;11.02;;
71343;SDS011;59146;43.850;25.948;2023-04-22T03:31:32;28.15;;;11.50;;
71343;SDS011;59146;43.850;25.948;2023-04-22T03:33:58;16.55;;;11.52;;
71343;SDS011;59146;43.850;25.948;2023-04-22T03:36:23;21.92;;;12.85;;
71343;SDS011;59146;43.850;25.948;2023-04-22T03:38:48;21.60;;;10.82;;
71343;SDS011;59146;43.850;25.948;2023-04-22T03:41:15;19.92;;;10.73;;
71343;SDS011;59146;43.850;25.948;2023-04-22T03:43:40;16.00;;;10.25;;
71343;SDS011;59146;43.850;25.948;2023-04-22T03:46:05;20.55;;;8.93;;
71343;SDS011;59146;43.850;25.948;2023-04-22T03:48:31;19.25;;;10.25;;
71343;SDS011;59146;43.850;25.948;2023-04-22T03:50:59;24.30;;;10.90;;
71343;SDS011;59146;43.850;25.948;2023-04-22T03:53:25;23.70;;;10.30;;
71343;SDS011;59146;43.850;25.948;2023-04-22T03:55:51;22.00;;;10.73;;
71343;SDS011;59146;43.850;25.948;2023-04-22T03:58:16;21.92;;;9.63;;
71343;SDS011;59146;43.850;25.948;2023-04-22T04:00:42;16.85;;;9.20;;
71343;SDS011;59146;43.850;25.948;2023-04-22T04:03:07;29.80;;;9.65;;
71343;SDS011;59146;43.850;25.948;2023-04-22T04:05:33;20.23;;;8.85;;
71343;SDS011;59146;43.850;25.948;2023-04-22T04:07:58;24.42;;;8.82;;
71343;SDS011;59146;43.850;25.948;2023-04-22T04:10:24;23.30;;;9.13;;
71343;SDS011;59146;43.850;25.948;2023-04-22T04:12:49;21.58;;;8.98;;
71343;SDS011;59146;43.850;25.948;2023-04-22T04:15:15;20.42;;;8.38;;
71343;SDS011;59146;43.850;25.948;2023-04-22T04:17:42;25.30;;;8.98;;
71343;SDS011;59146;43.850;25.948;2023-04-22T04:20:08;18.33;;;8.05;;
71343;SDS011;59146;43.850;25.948;2023-04-22T04:22:34;21.85;;;7.35;;
71343;SDS011;59146;43.850;25.948;2023-04-22T04:25:00;21.27;;;7.57;;
71343;SDS011;59146;43.850;25.948;2023-04-22T04:27:26;19.08;;;7.55;;
71343;SDS011;59146;43.850;25.948;2023-04-22T04:29:51;15.13;;;7.65;;
71343;SDS011;59146;43.850;25.948;2023-04-22T04:32:17;18.65;;;7.47;;
71343;SDS011;59146;43.850;25.948;2023-04-22T04:34:42;22.92;;;6.95;;
71343;SDS011;59146;43.850;25.948;2023-04-22T04:37:08;24.55;;;7.47;;
71343;SDS011;59146;43.850;25.948;2023-04-22T04:39:33;20.17;;;7.38;;
71343;SDS011;59146;43.850;25.948;2023-04-22T04:41:59;24.42;;;8.57;;
71343;SDS011;59146;43.850;25.948;2023-04-22T04:44:24;21.88;;;8.68;;
71343;SDS011;59146;43.850;25.948;2023-04-22T04:46:56;14.95;;;7.72;;
71343;SDS011;59146;43.850;25.948;2023-04-22T04:49:22;21.58;;;8.23;;
71343;SDS011;59146;43.850;25.948;2023-04-22T04:51:47;28.90;;;9.40;;
71343;SDS011;59146;43.850;25.948;2023-04-22T04:54:13;29.30;;;10.75;;
71343;SDS011;59146;43.850;25.948;2023-04-22T04:56:39;21.83;;;9.35;;
71343;SDS011;59146;43.850;25.948;2023-04-22T04:59:05;24.50;;;9.63;;
71343;SDS011;59146;43.850;25.948;2023-04-22T05:01:31;26.98;;;11.18;;
71343;SDS011;59146;43.850;25.948;2023-04-22T05:03:56;17.02;;;9.38;;
71343;SDS011;59146;43.850;25.948;2023-04-22T05:06:21;24.67;;;10.30;;
71343;SDS011;59146;43.850;25.948;2023-04-22T05:08:47;24.67;;;9.10;;
71343;SDS011;59146;43.850;25.948;2023-04-22T05:11:12;32.70;;;10.10;;
71343;SDS011;59146;43.850;25.948;2023-04-22T05:13:38;28.58;;;10.27;;
71343;SDS011;59146;43.850;25.948;2023-04-22T05:16:03;17.90;;;9.70;;
71343;SDS011;59146;43.850;25.948;2023-04-22T05:18:29;21.17;;;9.88;;
71343;SDS011;59146;43.850;25.948;2023-04-22T05:20:54;35.70;;;10.05;;
71343;SDS011;59146;43.850;25.948;2023-04-22T05:23:22;22.08;;;9.52;;
71343;SDS011;59146;43.850;25.948;2023-04-22T05:25:48;24.83;;;9.52;;
71343;SDS011;59146;43.850;25.948;2023-04-22T05:28:13;24.15;;;10.48;;
71343;SDS011;59146;43.850;25.948;2023-04-22T05:30:39;26.33;;;9.90;;
71343;SDS011;59146;43.850;25.948;2023-04-22T05:33:04;31.92;;;9.80;;
71343;SDS011;59146;43.850;25.948;2023-04-22T05:35:30;21.27;;;10.20;;
71343;SDS011;59146;43.850;25.948;2023-04-22T05:37:55;18.75;;;9.65;;
71343;SDS011;59146;43.850;25.948;2023-04-22T05:40:20;17.10;;;10.05;;
71343;SDS011;59146;43.850;25.948;2023-04-22T05:42:46;22.05;;;10.52;;
71343;SDS011;59146;43.850;25.948;2023-04-22T05:45:11;22.05;;;10.25;;
71343;SDS011;59146;43.850;25.948;2023-04-22T05:47:37;23.52;;;10.55;;
71343;SDS011;59146;43.850;25.948;2023-04-22T05:50:02;30.45;;;11.20;;
71343;SDS011;59146;43.850;25.948;2023-04-22T05:52:28;28.92;;;10.77;;
71343;SDS011;59146;43.850;25.948;2023-04-22T05:54:53;25.33;;;10.38;;
71343;SDS011;59146;43.850;25.948;2023-04-22T05:57:18;33.78;;;12.63;;
71343;SDS011;59146;43.850;25.948;2023-04-22T05:59:44;35.90;;;9.88;;
71343;SDS011;59146;43.850;25.948;2023-04-22T06:02:10;32.20;;;11.75;;
71343;SDS011;59146;43.850;25.948;2023-04-22T06:04:35;23.90;;;11.32;;
71343;SDS011;59146;43.850;25.948;2023-04-22T06:07:01;23.13;;;10.43;;
71343;SDS011;59146;43.850;25.948;2023-04-22T06:09:26;22.70;;;10.52;;
71343;SDS011;59146;43.850;25.948;2023-04-22T06:11:51;21.08;;;10.85;;
71343;SDS011;59146;43.850;25.948;2023-04-22T06:14:17;24.42;;;10.00;;
71343;SDS011;59146;43.850;25.948;2023-04-22T06:16:42;30.60;;;9.55;;
71343;SDS011;59146;43.850;25.948;2023-04-22T06:19:08;22.15;;;10.13;;
71343;SDS011;59146;43.850;25.948;2023-04-22T06:21:33;31.55;;;10.80;;
71343;SDS011;59146;43.850;25.948;2023-04-22T06:24:01;19.42;;;8.00;;
71343;SDS011;59146;43.850;25.948;2023-04-22T06:26:26;18.88;;;8.25;;
71343;SDS011;59146;43.850;25.948;2023-04-22T06:28:52;14.57;;;7.10;;
71343;SDS011;59146;43.850;25.948;2023-04-22T06:31:17;20.67;;;8.00;;
71343;SDS011;59146;43.850;25.948;2023-04-22T06:33:43;30.13;;;8.15;;
71343;SDS011;59146;43.850;25.948;2023-04-22T06:36:08;29.13;;;8.30;;
71343;SDS011;59146;43.850;25.948;2023-04-22T06:38:34;22.63;;;6.97;;
71343;SDS011;59146;43.850;25.948;2023-04-22T06:41:00;21.77;;;7.35;;
71343;SDS011;59146;43.850;25.948;2023-04-22T06:43:25;24.35;;;8.18;;
71343;SDS011;59146;43.850;25.948;2023-04-22T06:45:50;28.13;;;8.52;;
71343;SDS011;59146;43.850;25.948;2023-04-22T06:48:16;20.05;;;8.13;;
71343;SDS011;59146;43.850;25.948;2023-04-22T06:50:41;37.95;;;8.32;;
71343;SDS011;59146;43.850;25.948;2023-04-22T06:53:07;25.65;;;8.02;;
71343;SDS011;59146;43.850;25.948;2023-04-22T06:55:34;20.50;;;7.85;;
71343;SDS011;59146;43.850;25.948;2023-04-22T06:57:59;27.55;;;8.35;;
71343;SDS011;59146;43.850;25.948;2023-04-22T07:00:25;28.38;;;6.68;;
71343;SDS011;59146;43.850;25.948;2023-04-22T07:02:52;23.05;;;6.20;;
71343;SDS011;59146;43.850;25.948;2023-04-22T07:05:17;33.35;;;7.38;;
71343;SDS011;59146;43.850;25.948;2023-04-22T07:07:43;17.33;;;6.07;;
71343;SDS011;59146;43.850;25.948;2023-04-22T07:10:09;12.98;;;5.45;;
71343;SDS011;59146;43.850;25.948;2023-04-22T07:12:35;8.77;;;4.95;;
71343;SDS011;59146;43.850;25.948;2023-04-22T07:15:00;11.70;;;5.72;;
71343;SDS011;59146;43.850;25.948;2023-04-22T07:17:25;17.83;;;6.32;;
71343;SDS011;59146;43.850;25.948;2023-04-22T07:19:51;15.10;;;5.25;;
71343;SDS011;59146;43.850;25.948;2023-04-22T07:22:17;18.40;;;5.53;;
71343;SDS011;59146;43.850;25.948;2023-04-22T07:24:42;14.63;;;5.50;;
71343;SDS011;59146;43.850;25.948;2023-04-22T07:27:08;18.98;;;6.53;;
71343;SDS011;59146;43.850;25.948;2023-04-22T07:29:33;17.77;;;5.70;;
71343;SDS011;59146;43.850;25.948;2023-04-22T07:31:59;13.05;;;5.15;;
71343;SDS011;59146;43.850;25.948;2023-04-22T07:34:24;19.98;;;5.80;;
71343;SDS011;59146;43.850;25.948;2023-04-22T07:36:50;18.85;;;4.68;;
71343;SDS011;59146;43.850;25.948;2023-04-22T07:39:16;21.52;;;5.38;;
71343;SDS011;59146;43.850;25.948;2023-04-22T07:41:42;21.02;;;5.00;;
71343;SDS011;59146;43.850;25.948;2023-04-22T07:44:07;13.77;;;5.25;;
71343;SDS011;59146;43.850;25.948;2023-04-22T07:46:34;15.00;;;4.78;;
71343;SDS011;59146;43.850;25.948;2023-04-22T07:49:00;12.82;;;5.22;;
71343;SDS011;59146;43.850;25.948;2023-04-22T07:51:25;22.45;;;5.30;;
71343;SDS011;59146;43.850;25.948;2023-04-22T07:53:50;19.38;;;6.03;;
71343;SDS011;59146;43.850;25.948;2023-04-22T07:56:16;12.27;;;5.63;;
71343;SDS011;59146;43.850;25.948;2023-04-22T07:58:41;37.60;;;6.53;;
71343;SDS011;59146;43.850;25.948;2023-04-22T08:01:07;15.32;;;5.18;;
71343;SDS011;59146;43.850;25.948;2023-04-22T08:03:32;21.73;;;5.68;;
71343;SDS011;59146;43.850;25.948;2023-04-22T08:05:57;24.50;;;5.13;;
71343;SDS011;59146;43.850;25.948;2023-04-22T08:08:23;14.60;;;5.65;;
71343;SDS011;59146;43.850;25.948;2023-04-22T08:10:49;14.18;;;5.20;;
71343;SDS011;59146;43.850;25.948;2023-04-22T08:13:14;13.27;;;5.15;;
71343;SDS011;59146;43.850;25.948;2023-04-22T08:15:40;10.55;;;4.97;;
71343;SDS011;59146;43.850;25.948;2023-04-22T08:18:05;15.23;;;5.65;;
71343;SDS011;59146;43.850;25.948;2023-04-22T08:20:31;16.08;;;5.00;;
71343;SDS011;59146;43.850;25.948;2023-04-22T08:22:56;16.45;;;5.05;;
71343;SDS011;59146;43.850;25.948;2023-04-22T08:25:24;10.43;;;4.30;;
71343;SDS011;59146;43.850;25.948;2023-04-22T08:27:50;20.70;;;5.18;;
71343;SDS011;59146;43.850;25.948;2023-04-22T08:30:16;16.00;;;5.28;;
71343;SDS011;59146;43.850;25.948;2023-04-22T08:32:41;10.38;;;4.85;;
71343;SDS011;59146;43.850;25.948;2023-04-22T08:35:07;12.80;;;4.97;;
71343;SDS011;59146;43.850;25.948;2023-04-22T08:37:33;10.98;;;4.93;;
71343;SDS011;59146;43.850;25.948;2023-04-22T08:39:58;9.65;;;4.70;;
71343;SDS011;59146;43.850;25.948;2023-04-22T08:42:24;16.20;;;5.75;;
71343;SDS011;59146;43.850;25.948;2023-04-22T08:44:51;16.63;;;5.00;;
71343;SDS011;59146;43.850;25.948;2023-04-22T08:47:18;16.52;;;5.00;;
71343;SDS011;59146;43.850;25.948;2023-04-22T08:49:45;21.15;;;4.95;;
71343;SDS011;59146;43.850;25.948;2023-04-22T08:52:11;23.20;;;5.13;;
71343;SDS011;59146;43.850;25.948;2023-04-22T08:54:39;11.52;;;4.45;;
71343;SDS011;59146;43.850;25.948;2023-04-22T08:57:07;32.30;;;6.95;;
71343;SDS011;59146;43.850;25.948;2023-04-22T08:59:34;26.83;;;6.35;;
71343;SDS011;59146;43.850;25.948;2023-04-22T09:02:01;17.08;;;5.20;;
71343;SDS011;59146;43.850;25.948;2023-04-22T09:04:29;16.73;;;5.05;;
71343;SDS011;59146;43.850;25.948;2023-04-22T09:06:55;15.13;;;5.72;;
71343;SDS011;59146;43.850;25.948;2023-04-22T09:09:21;9.95;;;4.53;;
71343;SDS011;59146;43.850;25.948;2023-04-22T09:11:47;16.88;;;5.25;;
71343;SDS011;59146;43.850;25.948;2023-04-22T09:14:14;15.98;;;5.30;;
71343;SDS011;59146;43.850;25.948;2023-04-22T09:16:41;11.65;;;4.60;;
71343;SDS011;59146;43.850;25.948;2023-04-22T09:19:11;14.93;;;4.82;;
71343;SDS011;59146;43.850;25.948;2023-04-22T09:21:38;14.18;;;5.07;;
71343;SDS011;59146;43.850;25.948;2023-04-22T09:24:06;23.48;;;5.13;;
71343;SDS011;59146;43.850;25.948;2023-04-22T09:26:32;16.42;;;4.10;;
71343;SDS011;59146;43.850;25.948;2023-04-22T09:28:58;15.27;;;4.65;;
71343;SDS011;59146;43.850;25.948;2023-04-22T09:31:25;12.65;;;4.10;;
71343;SDS011;59146;43.850;25.948;2023-04-22T09:33:53;20.55;;;5.45;;
71343;SDS011;59146;43.850;25.948;2023-04-22T09:36:29;17.48;;;4.80;;
71343;SDS011;59146;43.850;25.948;2023-04-22T09:38:58;22.30;;;5.00;;
71343;SDS011;59146;43.850;25.948;2023-04-22T09:41:43;18.42;;;5.15;;
71343;SDS011;59146;43.850;25.948;2023-04-22T09:44:12;24.63;;;5.07;;
71343;SDS011;59146;43.850;25.948;2023-04-22T09:46:40;13.27;;;4.07;;
71343;SDS011;59146;43.850;25.948;2023-04-22T09:49:07;20.05;;;4.07;;
71343;SDS011;59146;43.850;25.948;2023-04-22T09:51:33;15.50;;;4.22;;
71343;SDS011;59146;43.850;25.948;2023-04-22T09:54:02;10.38;;;3.70;;
71343;SDS011;59146;43.850;25.948;2023-04-22T09:59:33;15.43;;;4.00;;
71343;SDS011;59146;43.850;25.948;2023-04-22T10:01:58;16.35;;;5.18;;
71343;SDS011;59146;43.850;25.948;2023-04-22T10:04:27;10.30;;;4.25;;
71343;SDS011;59146;43.850;25.948;2023-04-22T10:06:52;12.88;;;3.60;;
71343;SDS011;59146;43.850;25.948;2023-04-22T10:09:19;10.88;;;3.50;;
71343;SDS011;59146;43.850;25.948;2023-04-22T10:11:49;14.52;;;5.18;;
71343;SDS011;59146;43.850;25.948;2023-04-22T10:14:16;15.45;;;4.18;;
71343;SDS011;59146;43.850;25.948;2023-04-22T10:16:42;34.75;;;5.28;;
71343;SDS011;59146;43.850;25.948;2023-04-22T10:19:11;15.65;;;3.92;;
71343;SDS011;59146;43.850;25.948;2023-04-22T10:21:41;14.15;;;4.13;;
71343;SDS011;59146;43.850;25.948;2023-04-22T10:24:13;19.23;;;4.25;;
71343;SDS011;59146;43.850;25.948;2023-04-22T10:26:42;19.77;;;4.55;;
71343;SDS011;59146;43.850;25.948;2023-04-22T10:31:52;11.40;;;3.90;;
71343;SDS011;59146;43.850;25.948;2023-04-22T10:34:18;13.68;;;4.75;;
71343;SDS011;59146;43.850;25.948;2023-04-22T10:39:23;17.58;;;5.72;;
71343;SDS011;59146;43.850;25.948;2023-04-22T10:41:55;21.02;;;4.80;;
71343;SDS011;59146;43.850;25.948;2023-04-22T10:44:47;18.27;;;4.82;;
71343;SDS011;59146;43.850;25.948;2023-04-22T10:47:25;13.93;;;4.85;;
71343;SDS011;59146;43.850;25.948;2023-04-22T10:52:35;15.85;;;3.80;;
71343;SDS011;59146;43.850;25.948;2023-04-22T10:55:00;10.73;;;4.18;;
71343;SDS011;59146;43.850;25.948;2023-04-22T10:57:31;19.50;;;5.03;;
71343;SDS011;59146;43.850;25.948;2023-04-22T11:00:14;13.63;;;3.72;;
71343;SDS011;59146;43.850;25.948;2023-04-22T11:02:46;16.30;;;3.85;;
71343;SDS011;59146;43.850;25.948;2023-04-22T11:07:45;14.82;;;4.20;;
71343;SDS011;59146;43.850;25.948;2023-04-22T11:10:12;18.23;;;4.28;;
71343;SDS011;59146;43.850;25.948;2023-04-22T11:12:56;17.88;;;5.03;;
71343;SDS011;59146;43.850;25.948;2023-04-22T11:15:22;15.32;;;4.47;;
71343;SDS011;59146;43.850;25.948;2023-04-22T11:17:52;14.40;;;3.97;;
71343;SDS011;59146;43.850;25.948;2023-04-22T11:20:18;15.07;;;5.10;;
71343;SDS011;59146;43.850;25.948;2023-04-22T11:22:47;17.23;;;5.00;;
71343;SDS011;59146;43.850;25.948;2023-04-22T11:25:14;21.02;;;5.05;;
71343;SDS011;59146;43.850;25.948;2023-04-22T11:27:40;14.82;;;4.00;;
71343;SDS011;59146;43.850;25.948;2023-04-22T11:30:13;11.30;;;4.13;;
71343;SDS011;59146;43.850;25.948;2023-04-22T11:35:19;14.27;;;4.07;;
71343;SDS011;59146;43.850;25.948;2023-04-22T11:40:21;20.50;;;3.72;;
71343;SDS011;59146;43.850;25.948;2023-04-22T11:42:57;14.50;;;3.60;;
71343;SDS011;59146;43.850;25.948;2023-04-22T11:45:25;17.00;;;4.50;;
71343;SDS011;59146;43.850;25.948;2023-04-22T11:47:51;17.58;;;4.18;;
71343;SDS011;59146;43.850;25.948;2023-04-22T11:50:26;12.45;;;5.10;;
71343;SDS011;59146;43.850;25.948;2023-04-22T11:52:54;14.80;;;3.92;;
71343;SDS011;59146;43.850;25.948;2023-04-22T11:55:29;14.20;;;3.40;;
71343;SDS011;59146;43.850;25.948;2023-04-22T11:58:00;12.38;;;4.20;;
71343;SDS011;59146;43.850;25.948;2023-04-22T12:00:36;14.05;;;3.67;;
71343;SDS011;59146;43.850;25.948;2023-04-22T12:05:51;14.73;;;4.18;;
71343;SDS011;59146;43.850;25.948;2023-04-22T12:08:30;18.23;;;4.28;;
71343;SDS011;59146;43.850;25.948;2023-04-22T12:11:05;13.20;;;3.85;;
71343;SDS011;59146;43.850;25.948;2023-04-22T12:16:13;15.02;;;3.75;;
71343;SDS011;59146;43.850;25.948;2023-04-22T12:18:48;11.15;;;4.00;;
71343;SDS011;59146;43.850;25.948;2023-04-22T12:21:20;19.60;;;3.75;;
71343;SDS011;59146;43.850;25.948;2023-04-22T12:23:48;9.35;;;4.45;;
71343;SDS011;59146;43.850;25.948;2023-04-22T12:26:18;18.70;;;3.88;;
71343;SDS011;59146;43.850;25.948;2023-04-22T12:28:46;13.10;;;3.90;;
71343;SDS011;59146;43.850;25.948;2023-04-22T12:31:13;21.15;;;3.85;;
71343;SDS011;59146;43.850;25.948;2023-04-22T12:33:39;19.38;;;4.20;;
71343;SDS011;59146;43.850;25.948;2023-04-22T12:36:05;11.73;;;3.75;;
71343;SDS011;59146;43.850;25.948;2023-04-22T12:38:31;13.77;;;3.78;;
71343;SDS011;59146;43.850;25.948;2023-04-22T12:40:57;13.45;;;4.00;;
71343;SDS011;59146;43.850;25.948;2023-04-22T12:43:23;14.07;;;3.95;;
71343;SDS011;59146;43.850;25.948;2023-04-22T12:45:49;16.83;;;3.15;;
71343;SDS011;59146;43.850;25.948;2023-04-22T12:48:14;12.40;;;5.28;;
71343;SDS011;59146;43.850;25.948;2023-04-22T12:50:40;15.73;;;3.70;;
71343;SDS011;59146;43.850;25.948;2023-04-22T12:53:05;17.00;;;4.10;;
71343;SDS011;59146;43.850;25.948;2023-04-22T12:55:31;10.75;;;3.50;;
71343;SDS011;59146;43.850;25.948;2023-04-22T12:57:57;8.27;;;3.40;;
71343;SDS011;59146;43.850;25.948;2023-04-22T13:00:23;12.88;;;3.67;;
71343;SDS011;59146;43.850;25.948;2023-04-22T13:02:49;12.70;;;3.47;;
71343;SDS011;59146;43.850;25.948;2023-04-22T13:05:15;14.43;;;3.97;;
71343;SDS011;59146;43.850;25.948;2023-04-22T13:07:42;10.73;;;3.28;;
71343;SDS011;59146;43.850;25.948;2023-04-22T13:10:08;10.45;;;3.33;;
71343;SDS011;59146;43.850;25.948;2023-04-22T13:12:35;14.48;;;3.50;;
71343;SDS011;59146;43.850;25.948;2023-04-22T13:15:01;20.55;;;3.22;;
71343;SDS011;59146;43.850;25.948;2023-04-22T13:17:27;9.18;;;3.63;;
71343;SDS011;59146;43.850;25.948;2023-04-22T13:19:52;14.07;;;3.50;;
71343;SDS011;59146;43.850;25.948;2023-04-22T13:22:18;7.32;;;3.10;;
71343;SDS011;59146;43.850;25.948;2023-04-22T13:24:43;9.98;;;3.20;;
71343;SDS011;59146;43.850;25.948;2023-04-22T13:27:09;8.57;;;3.33;;
71343;SDS011;59146;43.850;25.948;2023-04-22T13:29:35;13.68;;;3.70;;
71343;SDS011;59146;43.850;25.948;2023-04-22T13:32:02;12.90;;;3.17;;
71343;SDS011;59146;43.850;25.948;2023-04-22T13:34:28;6.57;;;3.05;;
71343;SDS011;59146;43.850;25.948;2023-04-22T13:36:53;8.50;;;3.08;;
71343;SDS011;59146;43.850;25.948;2023-04-22T13:39:20;15.02;;;3.53;;
71343;SDS011;59146;43.850;25.948;2023-04-22T13:41:46;11.25;;;3.83;;
71343;SDS011;59146;43.850;25.948;2023-04-22T13:44:11;19.40;;;3.40;;
71343;SDS011;59146;43.850;25.948;2023-04-22T13:46:37;9.70;;;3.17;;
71343;SDS011;59146;43.850;25.948;2023-04-22T13:49:03;10.02;;;3.53;;
71343;SDS011;59146;43.850;25.948;2023-04-22T13:51:29;12.45;;;3.65;;
71343;SDS011;59146;43.850;25.948;2023-04-22T13:53:56;13.35;;;3.42;;
71343;SDS011;59146;43.850;25.948;2023-04-22T13:56:22;10.70;;;2.97;;
71343;SDS011;59146;43.850;25.948;2023-04-22T13:58:48;22.52;;;3.60;;
71343;SDS011;59146;43.850;25.948;2023-04-22T14:01:14;7.95;;;3.30;;
71343;SDS011;59146;43.850;25.948;2023-04-22T14:03:40;6.25;;;3.00;;
71343;SDS011;59146;43.850;25.948;2023-04-22T14:06:06;8.60;;;2.83;;
71343;SDS011;59146;43.850;25.948;2023-04-22T14:08:31;13.23;;;2.70;;
71343;SDS011;59146;43.850;25.948;2023-04-22T14:10:57;14.40;;;3.50;;
71343;SDS011;59146;43.850;25.948;2023-04-22T14:13:23;13.25;;;3.90;;
71343;SDS011;59146;43.850;25.948;2023-04-22T14:15:50;12.75;;;2.47;;
71343;SDS011;59146;43.850;25.948;2023-04-22T14:18:16;8.68;;;2.90;;
71343;SDS011;59146;43.850;25.948;2023-04-22T14:20:41;15.13;;;3.83;;
71343;SDS011;59146;43.850;25.948;2023-04-22T14:23:09;14.80;;;3.53;;
71343;SDS011;59146;43.850;25.948;2023-04-22T14:25:35;11.07;;;3.70;;
71343;SDS011;59146;43.850;25.948;2023-04-22T14:28:01;12.43;;;3.30;;
71343;SDS011;59146;43.850;25.948;2023-04-22T14:30:27;10.70;;;3.85;;
71343;SDS011;59146;43.850;25.948;2023-04-22T14:32:53;6.50;;;3.42;;
71343;SDS011;59146;43.850;25.948;2023-04-22T14:35:18;8.88;;;3.67;;
71343;SDS011;59146;43.850;25.948;2023-04-22T14:37:44;11.07;;;3.63;;
71343;SDS011;59146;43.850;25.948;2023-04-22T14:40:09;6.68;;;2.92;;